createdAt,value
2023-04-03T00:01:18.477Z,79.63
2023-04-03T00:03:45.216Z,79.44
2023-04-03T00:06:13.244Z,79.94
2023-04-03T00:08:41.399Z,80.46
2023-04-03T00:11:09.178Z,80.19
2023-04-03T00:13:36.614Z,80.33
2023-04-03T00:16:04.344Z,80.12
2023-04-03T00:18:31.353Z,80.28
2023-04-03T00:20:58.081Z,80.72
2023-04-03T00:23:24.829Z,81.07
2023-04-03T00:25:52.498Z,80.95
2023-04-03T00:28:19.159Z,81.08
2023-04-03T00:30:49.312Z,81.23
2023-04-03T00:33:20.499Z,81.30
2023-04-03T00:35:47.200Z,81.45
2023-04-03T00:38:14.230Z,82.05
2023-04-03T00:40:48.939Z,81.16
2023-04-03T00:43:21.685Z,81.99
2023-04-03T00:45:59.042Z,81.48
2023-04-03T00:48:36.152Z,82.36
2023-04-03T00:51:06.954Z,82.23
2023-04-03T00:53:42.412Z,82.77
2023-04-03T00:56:13.268Z,81.93
2023-04-03T00:58:52.869Z,82.35
2023-04-03T01:01:26.110Z,82.08
2023-04-03T01:03:55.503Z,82.51
2023-04-03T01:06:29.613Z,82.75
2023-04-03T01:08:57.150Z,82.20
2023-04-03T01:11:24.089Z,82.16
2023-04-03T01:13:51.178Z,82.15
2023-04-03T01:16:18.154Z,82.50
2023-04-03T01:18:46.674Z,82.23
2023-04-03T01:21:16.467Z,82.12
2023-04-03T01:24:07.392Z,82.73
2023-04-03T01:26:35.242Z,82.18
2023-04-03T01:29:02.004Z,82.09
2023-04-03T01:31:35.441Z,82.37
2023-04-03T01:34:02.870Z,81.85
2023-04-03T01:36:34.382Z,81.99
2023-04-03T01:39:01.867Z,82.08
2023-04-03T01:41:29.352Z,82.28
2023-04-03T01:43:55.974Z,82.26
2023-04-03T01:46:23.383Z,82.02
2023-04-03T01:48:50.369Z,81.56
2023-04-03T01:51:17.261Z,81.68
2023-04-03T01:53:44.020Z,81.55
2023-04-03T01:56:13.537Z,81.65
2023-04-03T01:58:40.560Z,81.62
2023-04-03T02:01:07.828Z,81.27
2023-04-03T02:03:34.826Z,81.52
2023-04-03T02:06:04.086Z,80.51
2023-04-03T02:08:33.389Z,80.81
2023-04-03T02:11:01.587Z,81.18
2023-04-03T02:13:31.087Z,80.76
2023-04-03T02:15:57.840Z,81.03
2023-04-03T02:18:26.989Z,81.08
2023-04-03T02:20:56.616Z,80.31
2023-04-03T02:23:28.318Z,80.33
2023-04-03T02:26:07.246Z,81.25
2023-04-03T02:28:34.365Z,80.77
2023-04-03T02:31:01.353Z,80.97
2023-04-03T02:33:30.543Z,80.92
2023-04-03T02:36:00.720Z,80.83
2023-04-03T02:38:27.402Z,80.77
2023-04-03T02:40:54.345Z,80.63
2023-04-03T02:43:21.112Z,80.99
2023-04-03T02:45:47.784Z,80.92
2023-04-03T02:48:16.140Z,80.94
2023-04-03T02:50:42.939Z,81.15
2023-04-03T02:53:09.809Z,81.23
2023-04-03T02:55:36.508Z,81.06
2023-04-03T02:58:08.633Z,81.33
2023-04-03T03:00:37.073Z,80.76
2023-04-03T03:03:04.240Z,81.36
2023-04-03T03:05:32.510Z,81.75
2023-04-03T03:07:59.317Z,81.50
2023-04-03T03:10:26.044Z,81.73
2023-04-03T03:12:52.948Z,81.41
2023-04-03T03:15:22.311Z,81.59
2023-04-03T03:17:51.573Z,81.55
2023-04-03T03:20:18.429Z,81.96
2023-04-03T03:22:47.846Z,81.28
2023-04-03T03:25:15.005Z,81.70
2023-04-03T03:27:41.673Z,82.27
2023-04-03T03:30:08.918Z,82.20
2023-04-03T03:32:36.032Z,81.70
2023-04-03T03:35:02.805Z,81.65
2023-04-03T03:37:29.551Z,81.82
2023-04-03T03:39:56.259Z,82.02
2023-04-03T03:42:23.470Z,82.25
2023-04-03T03:44:53.108Z,82.25
2023-04-03T03:47:19.897Z,82.04
2023-04-03T03:49:46.704Z,82.17
2023-04-03T03:52:13.639Z,82.18
2023-04-03T03:54:40.591Z,82.23
2023-04-03T03:57:07.529Z,82.65
2023-04-03T03:59:34.337Z,82.47
2023-04-03T04:02:01.376Z,82.65
2023-04-03T04:04:28.302Z,82.38
2023-04-03T04:06:55.182Z,83.24
2023-04-03T04:09:22.700Z,82.64
2023-04-03T04:11:54.042Z,82.75
2023-04-03T04:14:23.596Z,82.83
2023-04-03T04:16:50.438Z,83.06
2023-04-03T04:19:19.490Z,83.09
2023-04-03T04:21:46.656Z,83.18
2023-04-03T04:24:13.276Z,82.88
2023-04-03T04:26:40.022Z,83.17
2023-04-03T04:29:06.793Z,83.47
2023-04-03T04:31:33.778Z,83.19
2023-04-03T04:34:03.592Z,83.05
2023-04-03T04:36:32.859Z,83.19
2023-04-03T04:38:59.809Z,83.05
2023-04-03T04:41:27.110Z,83.05
2023-04-03T04:43:56.194Z,83.08
2023-04-03T04:46:22.934Z,82.93
2023-04-03T04:48:52.052Z,82.97
2023-04-03T04:51:18.681Z,82.60
2023-04-03T04:53:45.332Z,82.92
2023-04-03T04:56:12.544Z,83.16
2023-04-03T04:58:39.297Z,83.05
2023-04-03T05:01:09.045Z,83.15
2023-04-03T05:03:36.986Z,82.91
2023-04-03T05:06:04.251Z,83.30
2023-04-03T05:08:33.439Z,82.55
2023-04-03T05:11:02.576Z,83.07
2023-04-03T05:13:31.850Z,83.03
2023-04-03T05:15:58.623Z,83.31
2023-04-03T05:18:25.536Z,83.84
2023-04-03T05:20:54.942Z,83.55
2023-04-03T05:23:21.688Z,83.44
2023-04-03T05:25:50.687Z,83.29
2023-04-03T05:28:17.310Z,83.18
2023-04-03T05:30:44.152Z,82.68
2023-04-03T05:33:11.524Z,83.15
2023-04-03T05:35:42.734Z,82.79
2023-04-03T05:38:12.091Z,83.19
2023-04-03T05:40:39.014Z,83.09
2023-04-03T05:43:05.735Z,82.81
2023-04-03T05:45:34.970Z,82.65
2023-04-03T05:48:04.150Z,82.86
2023-04-03T05:50:31.335Z,82.97
2023-04-03T05:52:59.876Z,83.07
2023-04-03T05:55:26.562Z,82.30
2023-04-03T05:57:53.306Z,82.38
2023-04-03T06:00:20.701Z,82.55
2023-04-03T06:02:49.729Z,82.40
2023-04-03T06:05:16.652Z,82.02
2023-04-03T06:07:43.510Z,79.65
2023-04-03T06:10:13.329Z,72.37
2023-04-03T06:12:40.302Z,66.19
2023-04-03T06:15:09.245Z,64.83
2023-04-03T06:17:36.102Z,67.00
2023-04-03T06:20:03.373Z,71.82
2023-04-03T06:22:31.164Z,75.52
2023-04-03T06:24:58.453Z,77.21
2023-04-03T06:27:27.561Z,78.20
2023-04-03T06:29:54.249Z,78.99
2023-04-03T06:32:23.316Z,79.17
2023-04-03T06:34:49.983Z,79.89
2023-04-03T06:37:22.335Z,79.94
2023-04-03T06:39:52.167Z,79.34
2023-04-03T06:42:19.257Z,80.03
2023-04-03T06:44:48.212Z,80.33
2023-04-03T06:47:16.738Z,80.58
2023-04-03T06:49:44.429Z,79.72
2023-04-03T06:52:13.162Z,79.94
2023-04-03T06:54:41.149Z,79.94
2023-04-03T06:57:09.016Z,78.46
2023-04-03T06:59:37.719Z,76.30
2023-04-03T07:02:05.747Z,73.35
2023-04-03T07:04:32.945Z,69.57
2023-04-03T07:06:59.783Z,65.40
2023-04-03T07:09:27.163Z,60.02
2023-04-03T07:11:53.838Z,55.04
2023-04-03T07:14:23.184Z,52.74
2023-04-03T07:16:49.832Z,51.46
2023-04-03T07:19:16.618Z,50.54
2023-04-03T07:21:44.528Z,50.14
2023-04-03T07:24:15.110Z,50.43
2023-04-03T07:26:44.093Z,49.82
2023-04-03T07:29:10.912Z,48.87
2023-04-03T07:31:37.733Z,45.84
2023-04-03T07:34:07.209Z,45.24
2023-04-03T07:36:34.453Z,44.19
2023-04-03T07:39:01.192Z,43.88
2023-04-03T07:41:28.078Z,44.73
2023-04-03T07:43:56.113Z,44.51
2023-04-03T07:46:23.145Z,44.31
2023-04-03T07:48:50.013Z,44.21
2023-04-03T07:51:17.325Z,44.25
2023-04-03T07:53:44.360Z,44.47
2023-04-03T07:56:11.578Z,43.99
2023-04-03T07:58:38.427Z,44.06
2023-04-03T08:01:06.394Z,43.86
2023-04-03T08:03:33.342Z,44.00
2023-04-03T08:06:11.789Z,43.68
2023-04-03T08:08:42.518Z,43.05
2023-04-03T08:11:10.614Z,43.04
2023-04-03T08:13:39.831Z,43.07
2023-04-03T08:16:19.354Z,43.42
2023-04-03T08:18:46.416Z,42.75
2023-04-03T08:21:13.831Z,42.67
2023-04-03T08:23:45.725Z,42.70
2023-04-03T08:26:19.660Z,41.46
2023-04-03T08:28:46.474Z,40.98
2023-04-03T08:31:16.574Z,41.47
2023-04-03T08:33:45.964Z,40.48
2023-04-03T08:36:27.930Z,40.65
2023-04-03T08:38:56.269Z,40.10
2023-04-03T08:41:40.137Z,40.94
2023-04-03T08:44:27.528Z,40.83
2023-04-03T08:47:28.119Z,40.16
2023-04-03T08:49:59.987Z,40.59
2023-04-03T08:52:53.711Z,40.74
2023-04-03T08:55:43.937Z,41.31
2023-04-03T08:58:17.843Z,41.39
2023-04-03T09:00:54.698Z,41.40
2023-04-03T09:03:22.800Z,41.09
2023-04-03T09:06:16.177Z,41.71
2023-04-03T09:09:13.248Z,41.69
2023-04-03T09:12:01.528Z,41.70
2023-04-03T09:14:37.669Z,41.94
2023-04-03T09:17:15.484Z,41.87
2023-04-03T09:19:48.210Z,41.40
2023-04-03T09:22:30.117Z,41.82
2023-04-03T09:25:05.730Z,42.12
2023-04-03T09:27:32.483Z,42.74
2023-04-03T09:30:01.918Z,42.68
2023-04-03T09:32:35.328Z,42.87
2023-04-03T09:35:25.247Z,42.77
2023-04-03T09:38:14.371Z,43.69
2023-04-03T09:40:48.971Z,43.20
2023-04-03T09:43:19.117Z,42.45
2023-04-03T09:45:52.981Z,43.86
2023-04-03T09:48:24.370Z,44.10
2023-04-03T09:50:51.484Z,43.20
2023-04-03T09:53:33.021Z,44.51
2023-04-03T09:56:01.279Z,43.31
2023-04-03T09:58:49.814Z,43.74
2023-04-03T10:01:30.278Z,43.51
2023-04-03T10:04:17.453Z,43.14
2023-04-03T10:06:51.077Z,42.96
2023-04-03T10:09:26.103Z,42.93
2023-04-03T10:12:14.112Z,42.71
2023-04-03T10:14:54.169Z,42.69
2023-04-03T10:17:46.675Z,42.74
2023-04-03T10:20:24.170Z,42.63
2023-04-03T10:23:03.548Z,42.92
2023-04-03T10:25:38.586Z,41.96
2023-04-03T10:28:28.667Z,42.41
2023-04-03T10:31:01.137Z,41.72
2023-04-03T10:33:52.632Z,41.69
2023-04-03T10:36:28.862Z,42.66
2023-04-03T10:39:07.655Z,41.55
2023-04-03T10:41:48.291Z,42.38
2023-04-03T10:44:43.466Z,40.66
2023-04-03T10:47:39.589Z,41.44
2023-04-03T10:50:12.193Z,39.26
2023-04-03T10:52:49.129Z,39.16
2023-04-03T10:55:27.953Z,39.98
2023-04-03T10:58:01.714Z,39.44
2023-04-03T11:00:46.859Z,39.60
2023-04-03T11:03:54.282Z,39.29
2023-04-03T11:06:25.966Z,38.23
2023-04-03T11:09:07.863Z,39.33
2023-04-03T11:11:41.543Z,37.78
2023-04-03T11:14:28.638Z,37.74
2023-04-03T11:17:20.801Z,37.27
2023-04-03T11:20:10.154Z,37.58
2023-04-03T11:22:47.163Z,36.13
2023-04-03T11:25:13.667Z,35.64
2023-04-03T11:27:47.914Z,36.61
2023-04-03T11:30:37.153Z,35.60
2023-04-03T11:33:07.317Z,36.91
2023-04-03T11:35:38.954Z,36.30
2023-04-03T11:38:15.919Z,35.66
2023-04-03T11:40:47.706Z,35.77
2023-04-03T11:43:26.911Z,36.36
2023-04-03T11:46:07.610Z,36.06
2023-04-03T11:48:37.355Z,34.67
2023-04-03T11:51:29.894Z,36.55
2023-04-03T11:54:48.911Z,37.12
2023-04-03T11:57:46.298Z,36.44
2023-04-03T12:00:53.234Z,35.68
2023-04-03T12:03:32.325Z,35.32
2023-04-03T12:06:08.173Z,35.77
2023-04-03T12:08:35.260Z,34.83
2023-04-03T12:11:11.469Z,35.67
2023-04-03T12:13:39.878Z,35.84
2023-04-03T12:16:42.909Z,36.06
2023-04-03T12:19:16.030Z,36.35
2023-04-03T12:21:58.329Z,35.99
2023-04-03T12:24:31.984Z,36.17
2023-04-03T12:26:59.621Z,36.01
2023-04-03T12:29:39.638Z,36.30
2023-04-03T12:32:26.482Z,36.78
2023-04-03T12:35:12.560Z,36.58
2023-04-03T12:38:19.611Z,36.67
2023-04-03T12:40:58.260Z,36.36
2023-04-03T12:43:49.180Z,36.29
2023-04-03T12:46:19.301Z,36.50
2023-04-03T12:48:48.405Z,36.54
2023-04-03T12:51:23.171Z,36.97
2023-04-03T12:53:52.728Z,37.15
2023-04-03T12:56:21.678Z,36.78
2023-04-03T12:58:48.367Z,37.16
2023-04-03T13:01:21.036Z,37.18
2023-04-03T13:03:53.257Z,36.39
2023-04-03T13:06:24.775Z,37.07
2023-04-03T13:08:58.208Z,37.35
2023-04-03T13:11:27.170Z,37.71
2023-04-03T13:14:06.103Z,37.98
2023-04-03T13:16:34.610Z,37.50
2023-04-03T13:19:04.473Z,37.61
2023-04-03T13:21:34.705Z,37.54
2023-04-03T13:24:14.769Z,37.30
2023-04-03T13:26:42.684Z,37.16
2023-04-03T13:29:32.670Z,37.33
2023-04-03T13:32:01.471Z,37.15
2023-04-03T13:34:36.634Z,37.27
2023-04-03T13:37:05.424Z,37.44
2023-04-03T13:39:38.200Z,37.41
2023-04-03T13:42:24.744Z,37.13
2023-04-03T13:45:10.465Z,37.69
2023-04-03T13:47:41.362Z,37.88
2023-04-03T13:50:20.727Z,37.41
2023-04-03T13:53:03.559Z,38.09
2023-04-03T13:55:37.990Z,37.97
2023-04-03T13:58:23.917Z,38.42
2023-04-03T14:00:53.198Z,38.10
2023-04-03T14:03:38.161Z,38.45
2023-04-03T14:06:11.548Z,38.28
2023-04-03T14:08:42.957Z,38.37
2023-04-03T14:11:17.279Z,38.22
2023-04-03T14:13:45.458Z,37.90
2023-04-03T14:16:17.933Z,38.15
2023-04-03T14:18:50.822Z,38.33
2023-04-03T14:21:20.090Z,38.09
2023-04-03T14:23:49.658Z,38.28
2023-04-03T14:26:22.573Z,38.53
2023-04-03T14:28:52.350Z,38.59
2023-04-03T14:31:19.943Z,38.60
2023-04-03T14:33:49.966Z,38.71
2023-04-03T14:36:28.143Z,38.74
2023-04-03T14:38:57.995Z,39.48
2023-04-03T14:41:27.095Z,38.53
2023-04-03T14:43:53.889Z,38.91
2023-04-03T14:46:48.317Z,38.88
2023-04-03T14:49:23.646Z,38.92
2023-04-03T14:51:53.769Z,39.07
2023-04-03T14:54:26.402Z,39.00
2023-04-03T14:56:54.134Z,39.25
2023-04-03T14:59:22.502Z,39.14
2023-04-03T15:01:49.941Z,39.04
2023-04-03T15:04:20.169Z,38.82
2023-04-03T15:06:48.154Z,38.50
2023-04-03T15:09:31.024Z,38.86
2023-04-03T15:11:57.629Z,38.38
2023-04-03T15:14:35.763Z,38.31
2023-04-03T15:17:11.842Z,38.34
2023-04-03T15:19:41.489Z,38.66
2023-04-03T15:22:22.545Z,39.44
2023-04-03T15:24:49.047Z,39.19
2023-04-03T15:27:18.458Z,38.89
2023-04-03T15:29:45.937Z,39.32
2023-04-03T15:32:13.624Z,39.54
2023-04-03T15:34:41.132Z,38.61
2023-04-03T15:37:07.717Z,38.97
2023-04-03T15:39:34.411Z,39.00
2023-04-03T15:42:07.228Z,38.97
2023-04-03T15:44:37.211Z,38.69
2023-04-03T15:47:04.184Z,38.76
2023-04-03T15:49:37.145Z,39.37
2023-04-03T15:52:04.089Z,38.67
2023-04-03T15:54:30.783Z,39.05
2023-04-03T15:56:57.668Z,38.54
2023-04-03T15:59:27.065Z,38.92
2023-04-03T16:01:54.150Z,38.86
2023-04-03T16:04:23.802Z,39.14
2023-04-03T16:06:53.384Z,39.52
2023-04-03T16:09:20.754Z,39.08
2023-04-03T16:11:47.480Z,39.70
2023-04-03T16:14:14.300Z,39.59
2023-04-03T16:16:42.550Z,40.13
2023-04-03T16:19:11.429Z,39.93
2023-04-03T16:21:38.234Z,40.15
2023-04-03T16:24:05.735Z,40.18
2023-04-03T16:26:32.717Z,40.69
2023-04-03T16:28:59.557Z,40.51
2023-04-03T16:31:29.441Z,40.59
2023-04-03T16:33:57.854Z,40.71
2023-04-03T16:36:28.353Z,40.66
2023-04-03T16:38:55.338Z,41.20
2023-04-03T16:41:21.985Z,41.21
2023-04-03T16:43:48.805Z,41.42
2023-04-03T16:46:15.598Z,41.04
2023-04-03T16:48:42.245Z,41.08
2023-04-03T16:51:12.553Z,41.49
2023-04-03T16:53:39.179Z,41.65
2023-04-03T16:56:06.090Z,41.93
2023-04-03T16:58:32.663Z,41.75
2023-04-03T17:00:59.316Z,41.57
2023-04-03T17:03:27.083Z,41.62
2023-04-03T17:05:53.839Z,41.82
2023-04-03T17:08:20.456Z,41.66
2023-04-03T17:10:51.669Z,42.16
2023-04-03T17:13:18.540Z,42.09
2023-04-03T17:15:45.176Z,41.96
2023-04-03T17:18:11.954Z,42.29
2023-04-03T17:20:39.278Z,42.02
2023-04-03T17:23:06.825Z,42.43
2023-04-03T17:25:33.446Z,42.73
2023-04-03T17:28:02.659Z,42.51
2023-04-03T17:30:31.539Z,42.89
2023-04-03T17:32:58.138Z,42.65
2023-04-03T17:35:26.934Z,43.01
2023-04-03T17:37:53.732Z,42.86
2023-04-03T17:40:25.791Z,43.08
2023-04-03T17:42:54.881Z,43.50
2023-04-03T17:45:21.506Z,43.32
2023-04-03T17:47:50.139Z,43.69
2023-04-03T17:50:17.981Z,43.97
2023-04-03T17:52:47.025Z,43.93
2023-04-03T17:55:15.526Z,44.14
2023-04-03T17:57:45.187Z,44.38
2023-04-03T18:00:16.431Z,44.42
2023-04-03T18:02:46.102Z,44.67
2023-04-03T18:05:12.957Z,44.92
2023-04-03T18:07:43.483Z,44.93
2023-04-03T18:10:10.529Z,45.31
2023-04-03T18:12:37.545Z,45.22
2023-04-03T18:15:08.836Z,45.44
2023-04-03T18:17:35.477Z,45.81
2023-04-03T18:20:02.153Z,45.76
2023-04-03T18:22:34.662Z,45.99
2023-04-03T18:25:01.233Z,46.16
2023-04-03T18:27:28.281Z,46.28
2023-04-03T18:30:00.682Z,46.45
2023-04-03T18:32:27.678Z,46.14
2023-04-03T18:34:57.214Z,46.64
2023-04-03T18:37:26.610Z,46.88
2023-04-03T18:39:53.353Z,46.88
2023-04-03T18:42:25.020Z,47.18
2023-04-03T18:44:59.249Z,47.23
2023-04-03T18:47:28.199Z,47.52
2023-04-03T18:49:55.059Z,47.55
2023-04-03T18:52:27.265Z,47.82
2023-04-03T18:54:56.873Z,47.58
2023-04-03T18:57:28.825Z,47.70
2023-04-03T18:59:55.500Z,47.78
2023-04-03T19:02:24.642Z,47.77
2023-04-03T19:04:53.999Z,47.72
2023-04-03T19:07:23.103Z,48.14
2023-04-03T19:09:49.959Z,48.12
2023-04-03T19:12:19.072Z,48.13
2023-04-03T19:14:50.564Z,48.74
2023-04-03T19:17:17.207Z,48.57
2023-04-03T19:19:46.104Z,48.88
2023-04-03T19:22:12.818Z,48.68
2023-04-03T19:24:41.855Z,49.00
2023-04-03T19:27:08.476Z,49.42
2023-04-03T19:29:35.324Z,49.30
2023-04-03T19:32:01.908Z,49.34
2023-04-03T19:34:28.660Z,49.65
2023-04-03T19:37:01.002Z,49.66
2023-04-03T19:39:29.965Z,49.56
2023-04-03T19:41:59.372Z,50.14
2023-04-03T19:44:29.794Z,50.25
2023-04-03T19:46:56.674Z,50.22
2023-04-03T19:49:23.413Z,50.42
2023-04-03T19:51:50.085Z,50.23
2023-04-03T19:54:17.343Z,50.19
2023-04-03T19:56:43.980Z,50.03
2023-04-03T19:59:10.704Z,50.80
2023-04-03T20:01:37.710Z,50.11
2023-04-03T20:04:05.295Z,50.82
2023-04-03T20:06:36.853Z,50.50
2023-04-03T20:09:04.073Z,50.91
2023-04-03T20:11:30.977Z,50.91
2023-04-03T20:13:57.676Z,50.94
2023-04-03T20:16:26.219Z,51.12
2023-04-03T20:18:55.675Z,51.29
2023-04-03T20:21:33.425Z,51.53
2023-04-03T20:24:03.845Z,51.28
2023-04-03T20:26:38.826Z,51.61
2023-04-03T20:29:07.655Z,51.74
2023-04-03T20:31:34.541Z,51.92
2023-04-03T20:34:07.526Z,52.45
2023-04-03T20:36:34.968Z,51.64
2023-04-03T20:39:03.900Z,52.03
2023-04-03T20:41:35.452Z,52.64
2023-04-03T20:44:07.212Z,52.81
2023-04-03T20:46:42.671Z,52.05
2023-04-03T20:49:19.346Z,52.33
2023-04-03T20:51:46.078Z,52.49
2023-04-03T20:54:13.012Z,53.10
2023-04-03T20:56:42.763Z,52.76
2023-04-03T20:59:11.838Z,52.76
2023-04-03T21:01:43.215Z,53.26
2023-04-03T21:04:36.731Z,53.18
2023-04-03T21:07:41.522Z,53.25
2023-04-03T21:10:46.534Z,53.17
2023-04-03T21:13:50.901Z,53.07
2023-04-03T21:16:17.515Z,53.74
2023-04-03T21:19:12.501Z,53.92
2023-04-03T21:21:43.424Z,53.94
2023-04-03T21:24:10.977Z,54.14
2023-04-03T21:26:39.446Z,54.59
2023-04-03T21:29:12.192Z,54.24
2023-04-03T21:31:58.981Z,55.33
2023-04-03T21:34:30.294Z,55.33
2023-04-03T21:37:02.015Z,54.83
2023-04-03T21:39:31.490Z,55.71
2023-04-03T21:41:58.122Z,56.31
2023-04-03T21:44:25.120Z,55.86
2023-04-03T21:46:54.847Z,56.06
2023-04-03T21:49:22.869Z,56.57
2023-04-03T21:51:51.853Z,56.47
2023-04-03T21:54:18.934Z,56.08
2023-04-03T21:56:47.915Z,56.22
2023-04-03T21:59:14.854Z,56.66
2023-04-03T22:01:41.831Z,56.86
2023-04-03T22:04:08.722Z,56.32
2023-04-03T22:06:37.407Z,57.03
2023-04-03T22:09:06.942Z,56.35
2023-04-03T22:11:33.546Z,56.76
2023-04-03T22:14:00.263Z,56.68
2023-04-03T22:16:27.572Z,57.25
2023-04-03T22:18:59.316Z,57.21
2023-04-03T22:21:26.142Z,57.07
2023-04-03T22:23:54.539Z,57.27
2023-04-03T22:26:21.857Z,56.62
2023-04-03T22:28:48.598Z,56.75
2023-04-03T22:31:16.416Z,56.71
2023-04-03T22:33:44.435Z,56.70
2023-04-03T22:36:13.032Z,57.09
2023-04-03T22:38:43.511Z,57.36
2023-04-03T22:41:10.950Z,57.05
2023-04-03T22:43:38.305Z,57.04
2023-04-03T22:46:08.543Z,56.76
2023-04-03T22:48:35.949Z,57.11
2023-04-03T22:51:07.650Z,57.38
2023-04-03T22:53:35.506Z,57.09
2023-04-03T22:56:04.864Z,57.32
2023-04-03T22:58:34.248Z,57.68
2023-04-03T23:01:05.501Z,57.55
2023-04-03T23:03:32.659Z,57.17
2023-04-03T23:06:01.487Z,57.05
2023-04-03T23:08:29.280Z,57.83
2023-04-03T23:10:58.075Z,58.48
2023-04-03T23:13:25.641Z,58.58
2023-04-03T23:15:58.544Z,58.84
2023-04-03T23:18:31.763Z,59.02
2023-04-03T23:21:03.984Z,58.96
2023-04-03T23:23:31.151Z,58.51
2023-04-03T23:25:59.834Z,58.63
2023-04-03T23:28:27.527Z,59.27
2023-04-03T23:31:03.197Z,59.67
2023-04-03T23:33:31.320Z,59.12
2023-04-03T23:35:58.725Z,59.96
2023-04-03T23:38:26.577Z,59.40
2023-04-03T23:40:53.362Z,59.61
2023-04-03T23:43:22.796Z,59.17
2023-04-03T23:45:49.618Z,59.96
2023-04-03T23:48:18.537Z,59.70
2023-04-03T23:50:45.198Z,59.61
2023-04-03T23:53:14.960Z,59.57
2023-04-03T23:55:42.158Z,59.86
2023-04-03T23:58:09.108Z,59.68
